Time;durP1;ratioP1;P1;durP2;ratioP2;P2;SDS_P1;SDS_P2;PMS_P1;PMS_P2;Temp;Humidity;BMP_temperature;BMP_pressure;BME280_temperature;BME280_humidity;BME280_pressure;Samples;Min_cycle;Max_cycle;Signal;HPM_P1;HPM_P2
2022/10/29 00:01:38;;;;;;;94.22;26.00;;;;;;;;;;4982788;28;20051;-70
2022/10/29 00:04:04;;;;;;;100.43;26.23;;;;;;;;;;4971112;28;20045;-70
2022/10/29 00:06:30;;;;;;;98.43;27.45;;;;;;;;;;4990200;28;20101;-70
2022/10/29 00:08:56;;;;;;;96.80;24.95;;;;;;;;;;4989180;28;20467;-70
2022/10/29 00:11:22;;;;;;;91.72;25.45;;;;;;;;;;4990509;28;20056;-69
2022/10/29 00:13:52;;;;;;;100.72;26.92;;;;;;;;;;4988693;28;20030;-70
2022/10/29 00:16:19;;;;;;;90.60;25.02;;;;;;;;;;4989478;28;20038;-70
2022/10/29 00:18:45;;;;;;;111.05;26.45;;;;;;;;;;4989791;28;20069;-70
2022/10/29 00:21:13;;;;;;;81.15;24.38;;;;;;;;;;4989319;28;20026;-69
2022/10/29 00:23:39;;;;;;;95.50;26.15;;;;;;;;;;4982832;28;20547;-70
2022/10/29 00:26:06;;;;;;;100.13;27.15;;;;;;;;;;4983471;28;20081;-67
2022/10/29 00:28:32;;;;;;;96.53;27.08;;;;;;;;;;4981147;28;20030;-70
2022/10/29 00:31:02;;;;;;;90.90;28.77;;;;;;;;;;4985679;28;20044;-70
2022/10/29 00:33:28;;;;;;;98.75;28.33;;;;;;;;;;4989136;28;20359;-68
2022/10/29 00:35:58;;;;;;;89.30;27.52;;;;;;;;;;4984847;28;20048;-70
2022/10/29 00:38:25;;;;;;;111.85;29.77;;;;;;;;;;4988459;28;20489;-70
2022/10/29 00:40:51;;;;;;;104.35;29.40;;;;;;;;;;4990342;28;20046;-68
2022/10/29 00:43:18;;;;;;;108.65;29.98;;;;;;;;;;4988976;28;20057;-70
2022/10/29 00:45:48;;;;;;;109.78;29.13;;;;;;;;;;4985566;28;20099;-68
2022/10/29 00:48:14;;;;;;;106.32;29.95;;;;;;;;;;4989696;28;20559;-69
2022/10/29 00:50:40;;;;;;;121.55;31.90;;;;;;;;;;4989026;28;20031;-70
2022/10/29 00:53:06;;;;;;;109.38;31.05;;;;;;;;;;4989843;28;20109;-70
2022/10/29 00:55:33;;;;;;;107.40;30.33;;;;;;;;;;4988542;28;20039;-70
2022/10/29 00:57:59;;;;;;;87.30;28.63;;;;;;;;;;4981773;28;20026;-69
2022/10/29 01:00:26;;;;;;;91.63;29.77;;;;;;;;;;4967309;28;20031;-69
2022/10/29 01:02:52;;;;;;;87.43;27.17;;;;;;;;;;4989197;28;20051;-68
2022/10/29 01:05:20;;;;;;;91.30;27.92;;;;;;;;;;4988031;28;20026;-68
2022/10/29 01:07:46;;;;;;;83.20;26.20;;;;;;;;;;4990457;28;20452;-69
2022/10/29 01:10:13;;;;;;;109.45;30.65;;;;;;;;;;4987997;28;20042;-69
2022/10/29 01:12:48;;;;;;;103.38;30.33;;;;;;;;;;4971908;28;20477;-69
2022/10/29 01:15:31;;;;;;;112.68;32.45;;;;;;;;;;4989297;28;20030;-69
2022/10/29 01:18:12;;;;;;;107.72;32.00;;;;;;;;;;4989791;28;20153;-69
2022/10/29 01:20:38;;;;;;;;;;;;;;;;;;4986769;28;20516;-69
2022/10/29 01:23:09;;;;;;;111.13;31.15;;;;;;;;;;4989098;28;19910;-69
2022/10/29 01:25:54;;;;;;;99.82;31.05;;;;;;;;;;4987781;28;20031;-72
2022/10/29 01:28:29;;;;;;;113.95;30.35;;;;;;;;;;4985407;28;20033;-69
2022/10/29 01:30:55;;;;;;;93.22;29.13;;;;;;;;;;4989208;28;20026;-70
2022/10/29 01:33:24;;;;;;;108.63;31.92;;;;;;;;;;4989013;28;20404;-70
2022/10/29 01:36:08;;;;;;;93.50;29.30;;;;;;;;;;4990686;28;20504;-68
2022/10/29 01:38:57;;;;;;;110.78;29.23;;;;;;;;;;4994771;28;20038;-70
2022/10/29 01:41:29;;;;;;;110.05;28.70;;;;;;;;;;4993043;28;20092;-67
2022/10/29 01:43:55;;;;;;;112.82;29.77;;;;;;;;;;4994026;28;20070;-69
2022/10/29 01:46:22;;;;;;;108.47;30.80;;;;;;;;;;4992261;28;20069;-70
2022/10/29 01:48:49;;;;;;;124.28;32.08;;;;;;;;;;4994489;28;20041;-69
2022/10/29 01:51:20;;;;;;;118.72;30.90;;;;;;;;;;4993106;28;20056;-69
2022/10/29 01:53:47;;;;;;;114.63;31.58;;;;;;;;;;4993534;28;20038;-69
2022/10/29 01:56:13;;;;;;;120.80;31.55;;;;;;;;;;4982163;28;20058;-69
2022/10/29 01:58:41;;;;;;;121.65;31.95;;;;;;;;;;4974679;28;20443;-70
2022/10/29 02:01:39;;;;;;;118.45;31.75;;;;;;;;;;4974464;28;20506;-70
2022/10/29 02:04:07;;;;;;;119.47;30.85;;;;;;;;;;4931005;28;20493;-70
2022/10/29 02:06:50;;;;;;;120.88;32.58;;;;;;;;;;4974312;28;20491;-70
2022/10/29 02:09:26;;;;;;;131.35;33.10;;;;;;;;;;4990110;28;20532;-70
2022/10/29 02:12:13;;;;;;;120.97;33.58;;;;;;;;;;4992974;28;20621;-70
2022/10/29 02:14:43;;;;;;;128.40;34.03;;;;;;;;;;4985756;28;20125;-70
2022/10/29 02:17:09;;;;;;;135.02;33.63;;;;;;;;;;4991922;28;20042;-70
2022/10/29 02:19:36;;;;;;;123.22;33.30;;;;;;;;;;4990553;28;20057;-68
2022/10/29 02:22:02;;;;;;;99.28;30.27;;;;;;;;;;4987122;28;20104;-68
2022/10/29 02:24:28;;;;;;;75.10;24.23;;;;;;;;;;4971074;28;20082;-70
2022/10/29 02:26:54;;;;;;;84.25;21.48;;;;;;;;;;4991412;28;20178;-70
2022/10/29 02:29:20;;;;;;;89.53;23.52;;;;;;;;;;4974804;28;20073;-68
2022/10/29 02:31:46;;;;;;;61.45;21.60;;;;;;;;;;4983720;28;20105;-70
2022/10/29 02:34:12;;;;;;;60.47;19.88;;;;;;;;;;4991953;28;20038;-68
2022/10/29 02:36:38;;;;;;;69.60;21.63;;;;;;;;;;4986774;28;20034;-68
2022/10/29 02:39:04;;;;;;;70.97;22.30;;;;;;;;;;4991638;28;20049;-68
2022/10/29 02:41:31;;;;;;;74.93;22.45;;;;;;;;;;4991120;28;20117;-68
2022/10/29 02:43:57;;;;;;;92.18;25.65;;;;;;;;;;4990089;28;20022;-68
2022/10/29 02:46:23;;;;;;;132.18;29.30;;;;;;;;;;4988811;28;20552;-70
2022/10/29 02:48:50;;;;;;;136.13;36.30;;;;;;;;;;4990904;28;20026;-69
2022/10/29 02:51:16;;;;;;;232.05;41.13;;;;;;;;;;4975258;28;20577;-70
2022/10/29 02:53:42;;;;;;;248.10;47.35;;;;;;;;;;4971642;28;20034;-68
2022/10/29 02:56:09;;;;;;;182.10;47.15;;;;;;;;;;4972183;28;20066;-70
2022/10/29 02:58:35;;;;;;;201.00;50.22;;;;;;;;;;4974054;28;20034;-68
2022/10/29 03:01:01;;;;;;;254.93;55.05;;;;;;;;;;4992746;28;20049;-68
2022/10/29 03:03:27;;;;;;;325.27;59.60;;;;;;;;;;4991009;28;20452;-68
2022/10/29 03:05:53;;;;;;;502.60;71.40;;;;;;;;;;4987991;28;20039;-68
2022/10/29 03:08:20;;;;;;;299.45;63.33;;;;;;;;;;4969658;28;20485;-68
2022/10/29 03:10:46;;;;;;;511.58;67.90;;;;;;;;;;4989341;28;20516;-68
2022/10/29 03:13:13;;;;;;;293.05;63.17;;;;;;;;;;4968200;28;20038;-68
2022/10/29 03:15:39;;;;;;;293.90;65.45;;;;;;;;;;4983071;28;20030;-68
2022/10/29 03:18:05;;;;;;;322.70;69.93;;;;;;;;;;4971983;28;20038;-68
2022/10/29 03:20:31;;;;;;;382.88;72.85;;;;;;;;;;4988138;28;20046;-68
2022/10/29 03:22:57;;;;;;;291.52;68.43;;;;;;;;;;4989093;28;20034;-68
2022/10/29 03:25:23;;;;;;;272.40;64.60;;;;;;;;;;4988945;28;20394;-68
2022/10/29 03:27:49;;;;;;;323.10;72.10;;;;;;;;;;4989495;28;20057;-68
2022/10/29 03:30:16;;;;;;;345.27;73.22;;;;;;;;;;4990383;28;20029;-68
2022/10/29 03:32:43;;;;;;;360.35;74.47;;;;;;;;;;4971462;28;20026;-69
2022/10/29 03:35:10;;;;;;;234.27;67.40;;;;;;;;;;4989772;28;20532;-70
2022/10/29 03:37:36;;;;;;;352.70;74.88;;;;;;;;;;4988099;28;20058;-72
2022/10/29 03:40:02;;;;;;;460.83;79.32;;;;;;;;;;4992093;28;20043;-70
2022/10/29 03:42:30;;;;;;;302.38;73.07;;;;;;;;;;4991262;28;20033;-69
2022/10/29 03:44:57;;;;;;;301.15;74.20;;;;;;;;;;4970175;28;20019;-71
2022/10/29 03:47:23;;;;;;;267.92;72.80;;;;;;;;;;4972791;28;20034;-69
2022/10/29 03:49:49;;;;;;;312.42;74.15;;;;;;;;;;4979397;28;20042;-70
2022/10/29 03:52:15;;;;;;;284.33;74.82;;;;;;;;;;4974841;28;20033;-70
2022/10/29 03:54:41;;;;;;;255.43;73.88;;;;;;;;;;4991158;28;20042;-70
2022/10/29 03:57:07;;;;;;;224.27;70.45;;;;;;;;;;4991929;28;20120;-69
2022/10/29 03:59:33;;;;;;;250.40;74.60;;;;;;;;;;4973986;28;20030;-69
2022/10/29 04:01:59;;;;;;;273.77;74.85;;;;;;;;;;4989979;28;20062;-69
2022/10/29 04:04:25;;;;;;;260.13;73.40;;;;;;;;;;4985789;28;20035;-70
2022/10/29 04:06:51;;;;;;;235.27;72.80;;;;;;;;;;4989234;28;20405;-70
2022/10/29 04:09:17;;;;;;;216.10;69.25;;;;;;;;;;4990004;28;20037;-69
2022/10/29 04:11:43;;;;;;;246.68;72.03;;;;;;;;;;4990070;28;20049;-69
2022/10/29 04:14:09;;;;;;;223.55;70.38;;;;;;;;;;4989254;28;20092;-69
2022/10/29 04:16:35;;;;;;;221.45;69.25;;;;;;;;;;4987221;28;20093;-70
2022/10/29 04:19:01;;;;;;;221.55;70.07;;;;;;;;;;4988413;28;20501;-69
2022/10/29 04:21:27;;;;;;;228.20;69.82;;;;;;;;;;4971133;28;20617;-68
2022/10/29 04:23:53;;;;;;;239.60;70.03;;;;;;;;;;4990699;28;20117;-70
2022/10/29 04:26:19;;;;;;;247.38;70.90;;;;;;;;;;4980713;28;20106;-70
2022/10/29 04:28:47;;;;;;;215.68;67.40;;;;;;;;;;4985860;28;20379;-69
2022/10/29 04:31:13;;;;;;;215.77;68.63;;;;;;;;;;4987302;28;20026;-70
2022/10/29 04:33:39;;;;;;;216.77;68.38;;;;;;;;;;4989490;28;20533;-70
2022/10/29 04:36:05;;;;;;;214.73;66.60;;;;;;;;;;4972618;28;20034;-70
2022/10/29 04:38:31;;;;;;;195.80;65.78;;;;;;;;;;4954203;28;20572;-69
2022/10/29 04:40:58;;;;;;;200.93;66.63;;;;;;;;;;4989405;28;20563;-70
2022/10/29 04:43:24;;;;;;;192.25;69.05;;;;;;;;;;4972141;28;20023;-69
2022/10/29 04:45:52;;;;;;;208.32;68.63;;;;;;;;;;4988228;28;20059;-70
2022/10/29 04:48:18;;;;;;;198.65;66.82;;;;;;;;;;4988240;28;20069;-70
2022/10/29 04:50:44;;;;;;;182.80;67.00;;;;;;;;;;4988989;28;20054;-69
2022/10/29 04:53:11;;;;;;;195.60;66.07;;;;;;;;;;4991071;28;20116;-70
2022/10/29 04:55:38;;;;;;;178.63;62.92;;;;;;;;;;4989394;28;20069;-70
2022/10/29 04:58:07;;;;;;;193.63;65.32;;;;;;;;;;4990205;28;20386;-70
2022/10/29 05:00:33;;;;;;;193.52;63.42;;;;;;;;;;4990198;28;20086;-72
2022/10/29 05:02:59;;;;;;;198.15;64.25;;;;;;;;;;4989530;28;20042;-69
2022/10/29 05:05:25;;;;;;;189.63;63.03;;;;;;;;;;4988366;28;20508;-70
2022/10/29 05:08:02;;;;;;;181.23;64.40;;;;;;;;;;4989654;28;20034;-70
2022/10/29 05:10:28;;;;;;;189.32;62.95;;;;;;;;;;4969003;28;20481;-69
2022/10/29 05:13:06;;;;;;;192.07;67.07;;;;;;;;;;4990252;28;20060;-69
2022/10/29 05:15:32;;;;;;;198.20;65.32;;;;;;;;;;4989902;28;20114;-70
2022/10/29 05:17:58;;;;;;;191.93;66.47;;;;;;;;;;4977358;28;20053;-70
2022/10/29 05:20:25;;;;;;;212.45;71.10;;;;;;;;;;4975438;28;20547;-70
2022/10/29 05:22:57;;;;;;;193.95;68.75;;;;;;;;;;4991257;28;20027;-70
2022/10/29 05:25:23;;;;;;;189.25;67.50;;;;;;;;;;4991891;28;20504;-70
2022/10/29 05:27:49;;;;;;;185.52;66.95;;;;;;;;;;4994046;28;20026;-70
2022/10/29 05:30:15;;;;;;;182.90;62.33;;;;;;;;;;4993168;28;20034;-70
2022/10/29 05:32:41;;;;;;;205.15;62.88;;;;;;;;;;4991420;28;20605;-70
2022/10/29 05:35:07;;;;;;;187.23;61.17;;;;;;;;;;4993048;28;20106;-70
2022/10/29 05:37:33;;;;;;;168.73;60.08;;;;;;;;;;4993923;28;20038;-72
2022/10/29 05:39:59;;;;;;;167.15;56.05;;;;;;;;;;4993536;28;20101;-70
2022/10/29 05:42:25;;;;;;;164.23;56.88;;;;;;;;;;4990201;28;20054;-70
2022/10/29 05:44:51;;;;;;;175.07;60.65;;;;;;;;;;4992184;28;20057;-70
2022/10/29 05:47:17;;;;;;;192.43;61.38;;;;;;;;;;4975198;28;20130;-70
2022/10/29 05:49:43;;;;;;;175.70;61.17;;;;;;;;;;4989690;28;20125;-70
2022/10/29 05:52:09;;;;;;;172.73;60.17;;;;;;;;;;4990944;28;20042;-69
2022/10/29 05:54:35;;;;;;;187.73;63.75;;;;;;;;;;4991891;28;20046;-70
2022/10/29 05:57:01;;;;;;;177.38;62.75;;;;;;;;;;4972400;28;20034;-70
2022/10/29 05:59:27;;;;;;;189.02;65.07;;;;;;;;;;4992015;28;20100;-69
2022/10/29 06:01:53;;;;;;;185.35;62.90;;;;;;;;;;4990870;28;20058;-70
2022/10/29 06:04:19;;;;;;;163.95;61.00;;;;;;;;;;4985073;28;20037;-70
2022/10/29 06:06:45;;;;;;;177.90;65.53;;;;;;;;;;4991121;28;20034;-70
2022/10/29 06:09:11;;;;;;;191.02;64.47;;;;;;;;;;4991660;28;20121;-70
2022/10/29 06:11:37;;;;;;;199.15;65.57;;;;;;;;;;4993397;28;20041;-70
2022/10/29 06:14:03;;;;;;;193.82;64.75;;;;;;;;;;4993888;28;20042;-69
2022/10/29 06:16:29;;;;;;;191.43;67.45;;;;;;;;;;4991620;28;20080;-69
2022/10/29 06:18:55;;;;;;;187.85;67.70;;;;;;;;;;4976122;28;20559;-69
2022/10/29 06:21:21;;;;;;;172.27;67.65;;;;;;;;;;4992707;28;20062;-69
2022/10/29 06:23:49;;;;;;;180.38;69.70;;;;;;;;;;4986178;28;20088;-69
2022/10/29 06:26:15;;;;;;;184.05;71.15;;;;;;;;;;4981148;28;20054;-69
2022/10/29 06:28:42;;;;;;;174.38;69.05;;;;;;;;;;4974005;28;20112;-69
2022/10/29 06:31:08;;;;;;;186.20;71.30;;;;;;;;;;4992914;28;20101;-69
2022/10/29 06:33:34;;;;;;;185.52;69.45;;;;;;;;;;4980539;28;20054;-70
2022/10/29 06:36:00;;;;;;;187.57;67.47;;;;;;;;;;4989784;28;20034;-70
2022/10/29 06:38:26;;;;;;;168.25;66.65;;;;;;;;;;4985853;28;20042;-69
2022/10/29 06:40:53;;;;;;;172.65;69.25;;;;;;;;;;4984272;28;20046;-69
2022/10/29 06:43:19;;;;;;;165.05;68.50;;;;;;;;;;4989707;28;20396;-69
2022/10/29 06:45:45;;;;;;;179.63;69.10;;;;;;;;;;4985523;28;20037;-70
2022/10/29 06:48:11;;;;;;;185.60;68.88;;;;;;;;;;4985153;28;20042;-69
2022/10/29 06:50:37;;;;;;;174.93;67.90;;;;;;;;;;4989589;28;20038;-69
2022/10/29 06:53:05;;;;;;;167.65;68.43;;;;;;;;;;4991485;28;20527;-69
2022/10/29 06:55:32;;;;;;;177.18;68.45;;;;;;;;;;4990941;28;20062;-70
2022/10/29 06:58:01;;;;;;;167.07;65.40;;;;;;;;;;4987872;28;20046;-70
2022/10/29 07:00:27;;;;;;;157.93;65.93;;;;;;;;;;4990965;28;20038;-69
2022/10/29 07:02:54;;;;;;;147.65;64.03;;;;;;;;;;4974570;28;20141;-69
2022/10/29 07:05:20;;;;;;;174.07;67.55;;;;;;;;;;4990232;28;20026;-69
2022/10/29 07:07:46;;;;;;;180.77;68.50;;;;;;;;;;4988712;28;20085;-68
2022/10/29 07:10:12;;;;;;;177.88;67.53;;;;;;;;;;4985601;28;20036;-69
2022/10/29 07:12:39;;;;;;;152.55;63.58;;;;;;;;;;4972288;28;20034;-69
2022/10/29 07:15:05;;;;;;;160.45;63.95;;;;;;;;;;4989760;28;20031;-69
2022/10/29 07:17:31;;;;;;;156.15;62.10;;;;;;;;;;4990599;28;20034;-69
2022/10/29 07:19:57;;;;;;;164.40;63.88;;;;;;;;;;4989855;28;20076;-69
2022/10/29 07:22:23;;;;;;;155.55;61.65;;;;;;;;;;4988656;28;20074;-69
2022/10/29 07:24:49;;;;;;;142.38;60.05;;;;;;;;;;4990629;28;20130;-70
2022/10/29 07:27:15;;;;;;;144.85;61.08;;;;;;;;;;4970598;28;20054;-69
2022/10/29 07:29:41;;;;;;;142.43;60.72;;;;;;;;;;4987839;28;20062;-68
2022/10/29 07:32:07;;;;;;;141.60;60.47;;;;;;;;;;4989992;28;20073;-69
2022/10/29 07:34:33;;;;;;;132.98;59.42;;;;;;;;;;4967958;28;20040;-69
2022/10/29 07:36:59;;;;;;;136.88;59.88;;;;;;;;;;4988652;28;20158;-69
2022/10/29 07:39:25;;;;;;;130.75;58.25;;;;;;;;;;4983757;28;20035;-69
2022/10/29 07:41:51;;;;;;;132.10;58.72;;;;;;;;;;4990089;28;20053;-69
2022/10/29 07:44:17;;;;;;;146.65;61.03;;;;;;;;;;4973130;28;20501;-69
2022/10/29 07:46:43;;;;;;;142.93;62.67;;;;;;;;;;4991337;28;20019;-69
2022/10/29 07:49:09;;;;;;;132.23;58.92;;;;;;;;;;4984337;28;20034;-69
2022/10/29 07:51:35;;;;;;;124.07;58.47;;;;;;;;;;4992591;28;20037;-69
2022/10/29 07:54:01;;;;;;;134.90;58.30;;;;;;;;;;4989818;28;20129;-69
2022/10/29 07:56:27;;;;;;;138.50;59.53;;;;;;;;;;4991338;28;20084;-69
2022/10/29 07:58:53;;;;;;;106.95;55.55;;;;;;;;;;4990353;28;20042;-69
2022/10/29 08:01:19;;;;;;;130.02;58.08;;;;;;;;;;4991141;28;20038;-68
2022/10/29 08:03:45;;;;;;;114.72;53.55;;;;;;;;;;4974250;28;20033;-69
2022/10/29 08:06:11;;;;;;;112.32;53.08;;;;;;;;;;4986346;28;20046;-69
2022/10/29 08:08:37;;;;;;;104.72;51.35;;;;;;;;;;4981185;28;20089;-70
2022/10/29 08:11:04;;;;;;;94.53;49.97;;;;;;;;;;4985862;28;20065;-69
2022/10/29 08:13:30;;;;;;;98.70;48.90;;;;;;;;;;4985345;28;20034;-69
2022/10/29 08:15:56;;;;;;;102.80;49.22;;;;;;;;;;4984123;28;20141;-69
2022/10/29 08:18:22;;;;;;;95.30;48.97;;;;;;;;;;4989057;28;20659;-68
2022/10/29 08:20:48;;;;;;;85.90;45.00;;;;;;;;;;4988698;28;20112;-69
2022/10/29 08:23:14;;;;;;;101.47;45.78;;;;;;;;;;4970267;28;20062;-69
2022/10/29 08:25:41;;;;;;;73.20;40.80;;;;;;;;;;4985994;28;20050;-68
2022/10/29 08:28:09;;;;;;;65.20;37.85;;;;;;;;;;4969454;28;20026;-68
2022/10/29 08:30:35;;;;;;;61.92;36.42;;;;;;;;;;4971257;28;20030;-69
2022/10/29 08:33:01;;;;;;;70.57;35.53;;;;;;;;;;4978033;28;20042;-70
2022/10/29 08:35:27;;;;;;;66.28;36.08;;;;;;;;;;4971430;28;20042;-70
2022/10/29 08:37:53;;;;;;;63.00;34.63;;;;;;;;;;4984051;28;20030;-70
2022/10/29 08:40:30;;;;;;;58.08;30.95;;;;;;;;;;4971017;28;20058;-70
2022/10/29 08:43:19;;;;;;;58.55;32.17;;;;;;;;;;4989161;28;20193;-70
2022/10/29 08:45:47;;;;;;;51.35;30.40;;;;;;;;;;4941613;28;20046;-70
2022/10/29 08:48:22;;;;;;;54.70;29.50;;;;;;;;;;4988435;28;20037;-70
2022/10/29 08:50:51;;;;;;;54.45;27.60;;;;;;;;;;4990754;28;20034;-69
2022/10/29 08:53:24;;;;;;;48.03;26.05;;;;;;;;;;4975587;28;20173;-69
2022/10/29 08:55:52;;;;;;;52.33;25.95;;;;;;;;;;4987436;28;20029;-68
2022/10/29 08:58:18;;;;;;;42.22;22.48;;;;;;;;;;4994185;28;20193;-69
2022/10/29 09:00:45;;;;;;;43.60;22.40;;;;;;;;;;4991856;28;20128;-68
2022/10/29 09:03:12;;;;;;;49.30;22.48;;;;;;;;;;4991393;28;20074;-68
2022/10/29 09:05:53;;;;;;;42.60;21.50;;;;;;;;;;4991283;28;20042;-69
2022/10/29 09:08:42;;;;;;;39.17;22.55;;;;;;;;;;4993124;28;20030;-69
2022/10/29 09:11:11;;;;;;;35.70;21.45;;;;;;;;;;4980729;28;20042;-69
2022/10/29 09:14:00;;;;;;;39.22;21.00;;;;;;;;;;4985896;28;20042;-70
2022/10/29 09:16:45;;;;;;;40.92;21.17;;;;;;;;;;4986292;28;20049;-70
2022/10/29 09:19:20;;;;;;;41.42;20.90;;;;;;;;;;4992152;28;20038;-70
2022/10/29 09:21:55;;;;;;;34.03;19.35;;;;;;;;;;4989794;28;20069;-70
2022/10/29 09:24:28;;;;;;;39.50;19.73;;;;;;;;;;4986966;28;20529;-70
2022/10/29 09:27:09;;;;;;;36.08;19.75;;;;;;;;;;4992242;28;20109;-70
2022/10/29 09:29:47;;;;;;;35.92;19.60;;;;;;;;;;4983789;28;20053;-70
2022/10/29 09:32:20;;;;;;;35.67;18.65;;;;;;;;;;4993650;28;20041;-70
2022/10/29 09:34:50;;;;;;;40.75;19.70;;;;;;;;;;4992151;28;20117;-70
2022/10/29 09:37:23;;;;;;;40.85;19.17;;;;;;;;;;4992067;28;20038;-70
2022/10/29 09:39:49;;;;;;;38.55;18.73;;;;;;;;;;4985795;28;20068;-70
2022/10/29 09:42:17;;;;;;;32.25;19.30;;;;;;;;;;4988839;28;20038;-70
2022/10/29 09:44:48;;;;;;;37.42;18.35;;;;;;;;;;4989843;28;20539;-70
2022/10/29 09:47:14;;;;;;;;;;;;;;;;;;4988736;28;20026;-70
2022/10/29 09:49:43;;;;;;;36.67;19.08;;;;;;;;;;4986355;28;19964;-71
2022/10/29 09:52:27;;;;;;;45.65;19.67;;;;;;;;;;4990177;28;20136;-72
2022/10/29 09:54:54;;;;;;;45.00;19.45;;;;;;;;;;4991236;28;20158;-70
2022/10/29 09:57:22;;;;;;;35.40;18.30;;;;;;;;;;4992650;28;20476;-69
2022/10/29 09:59:54;;;;;;;32.05;19.35;;;;;;;;;;4988705;28;20038;-69
2022/10/29 10:02:20;;;;;;;36.90;19.15;;;;;;;;;;4990999;28;20134;-69
2022/10/29 10:04:48;;;;;;;50.17;20.08;;;;;;;;;;4993090;28;20102;-69
2022/10/29 10:07:20;;;;;;;39.95;18.80;;;;;;;;;;4992206;28;20034;-69
2022/10/29 10:09:50;;;;;;;35.95;18.80;;;;;;;;;;4978360;28;20045;-70
2022/10/29 10:12:17;;;;;;;42.95;18.90;;;;;;;;;;4991325;28;20045;-69
2022/10/29 10:14:44;;;;;;;33.45;17.33;;;;;;;;;;4989067;28;20478;-69
2022/10/29 10:17:10;;;;;;;33.85;17.48;;;;;;;;;;4987174;28;20051;-69
2022/10/29 10:19:41;;;;;;;38.00;18.23;;;;;;;;;;4990711;28;20091;-69
2022/10/29 10:22:17;;;;;;;36.67;18.17;;;;;;;;;;4974081;28;20034;-69
2022/10/29 10:24:43;;;;;;;31.17;16.83;;;;;;;;;;4987268;28;20026;-69
2022/10/29 10:27:18;;;;;;;37.67;18.02;;;;;;;;;;4988416;28;20038;-69
2022/10/29 10:30:04;;;;;;;32.83;16.55;;;;;;;;;;4974372;28;20490;-69
2022/10/29 10:32:30;;;;;;;32.05;16.48;;;;;;;;;;4983387;28;20481;-69
2022/10/29 10:34:56;;;;;;;34.83;16.52;;;;;;;;;;4973804;28;20065;-69
2022/10/29 10:37:23;;;;;;;31.02;16.08;;;;;;;;;;4989670;28;20081;-69
2022/10/29 10:40:04;;;;;;;34.55;15.80;;;;;;;;;;4990412;28;20512;-69
2022/10/29 10:42:35;;;;;;;24.20;14.93;;;;;;;;;;4986681;28;20102;-69
2022/10/29 10:45:13;;;;;;;35.55;16.42;;;;;;;;;;4990713;28;20034;-69
2022/10/29 10:47:41;;;;;;;26.67;14.52;;;;;;;;;;4989700;28;20038;-69
2022/10/29 10:50:19;;;;;;;30.08;15.00;;;;;;;;;;4987281;28;20060;-69
2022/10/29 10:52:45;;;;;;;26.20;14.85;;;;;;;;;;4992822;28;20104;-69
2022/10/29 10:55:26;;;;;;;31.55;14.35;;;;;;;;;;4992630;28;20026;-69
2022/10/29 10:57:55;;;;;;;23.90;13.70;;;;;;;;;;4990673;28;20038;-69
2022/10/29 11:00:22;;;;;;;29.00;13.93;;;;;;;;;;4990246;28;20244;-69
2022/10/29 11:02:52;;;;;;;30.30;13.98;;;;;;;;;;4992044;28;20316;-70
2022/10/29 11:05:19;;;;;;;36.08;14.73;;;;;;;;;;4990801;28;20104;-70
2022/10/29 11:07:58;;;;;;;27.63;13.00;;;;;;;;;;4984880;28;20026;-67
2022/10/29 11:10:33;;;;;;;32.83;15.10;;;;;;;;;;4986902;28;20355;-68
2022/10/29 11:13:01;;;;;;;25.80;12.95;;;;;;;;;;4987445;28;20050;-70
2022/10/29 11:15:32;;;;;;;32.47;13.27;;;;;;;;;;4973570;28;20429;-68
2022/10/29 11:18:02;;;;;;;30.77;13.52;;;;;;;;;;4990906;28;20031;-68
2022/10/29 11:20:31;;;;;;;22.92;12.15;;;;;;;;;;4989531;28;20030;-68
2022/10/29 11:23:15;;;;;;;22.58;11.98;;;;;;;;;;4988253;28;20049;-68
2022/10/29 11:25:44;;;;;;;25.52;12.48;;;;;;;;;;4990193;28;20026;-68
2022/10/29 11:28:30;;;;;;;44.88;13.43;;;;;;;;;;4982938;28;20053;-68
2022/10/29 11:30:59;;;;;;;23.27;13.35;;;;;;;;;;4990179;28;20030;-69
2022/10/29 11:33:34;;;;;;;25.15;13.63;;;;;;;;;;4990894;28;20215;-70
2022/10/29 11:36:04;;;;;;;31.55;14.98;;;;;;;;;;4991666;28;20045;-68
2022/10/29 11:38:38;;;;;;;30.33;12.95;;;;;;;;;;4992077;28;20041;-68
2022/10/29 11:41:09;;;;;;;30.42;13.45;;;;;;;;;;4985855;28;20342;-70
2022/10/29 11:43:35;;;;;;;34.15;15.75;;;;;;;;;;4972748;28;20043;-69
2022/10/29 11:46:01;;;;;;;28.80;14.93;;;;;;;;;;4955680;28;20066;-68
2022/10/29 11:48:27;;;;;;;29.05;14.35;;;;;;;;;;4972479;28;20038;-68
2022/10/29 11:51:11;;;;;;;34.58;14.55;;;;;;;;;;4985958;28;20034;-67
2022/10/29 11:53:41;;;;;;;39.63;16.38;;;;;;;;;;4990930;28;20034;-68
2022/10/29 11:56:12;;;;;;;30.23;15.45;;;;;;;;;;4989730;28;20593;-68
2022/10/29 11:58:38;;;;;;;29.77;14.68;;;;;;;;;;4991376;28;20030;-68
2022/10/29 12:01:10;;;;;;;28.55;14.52;;;;;;;;;;4991263;28;20494;-68
2022/10/29 12:03:42;;;;;;;33.40;15.40;;;;;;;;;;4989881;28;20042;-68
2022/10/29 12:06:15;;;;;;;37.30;14.57;;;;;;;;;;4990766;28;20026;-68
2022/10/29 12:09:01;;;;;;;31.58;13.65;;;;;;;;;;4985191;28;20033;-68
2022/10/29 12:11:39;;;;;;;34.92;14.13;;;;;;;;;;4980335;28;20042;-68
2022/10/29 12:14:11;;;;;;;34.78;12.77;;;;;;;;;;4987032;28;20026;-68
2022/10/29 12:16:37;;;;;;;32.50;13.32;;;;;;;;;;4989933;28;20113;-68
2022/10/29 12:19:09;;;;;;;26.55;12.65;;;;;;;;;;4982156;28;20117;-68
2022/10/29 12:21:42;;;;;;;28.92;11.90;;;;;;;;;;4983880;28;20030;-68
2022/10/29 12:24:08;;;;;;;26.42;11.50;;;;;;;;;;4983432;28;20041;-68
2022/10/29 12:26:52;;;;;;;23.85;10.38;;;;;;;;;;4988669;28;20478;-69
2022/10/29 12:29:21;;;;;;;27.90;10.95;;;;;;;;;;4987263;28;20555;-68
2022/10/29 12:31:56;;;;;;;25.98;10.32;;;;;;;;;;4985534;28;20410;-68
2022/10/29 12:34:39;;;;;;;27.50;10.68;;;;;;;;;;4987013;28;20053;-69
2022/10/29 12:37:05;;;;;;;28.17;10.25;;;;;;;;;;4989703;28;20045;-69
2022/10/29 12:39:34;;;;;;;21.08;9.65;;;;;;;;;;4971451;28;20102;-69
2022/10/29 12:42:12;;;;;;;27.63;9.40;;;;;;;;;;4988452;28;20043;-68
2022/10/29 12:44:46;;;;;;;28.42;9.82;;;;;;;;;;4990393;28;20023;-69
2022/10/29 12:47:25;;;;;;;22.67;9.10;;;;;;;;;;4989376;28;20527;-69
2022/10/29 12:49:56;;;;;;;23.30;8.75;;;;;;;;;;4986289;28;20034;-69
2022/10/29 12:52:33;;;;;;;22.98;8.80;;;;;;;;;;4988552;28;20034;-69
2022/10/29 12:55:00;;;;;;;22.02;9.02;;;;;;;;;;4984380;28;20386;-69
2022/10/29 12:57:31;;;;;;;24.38;9.05;;;;;;;;;;4989529;28;20038;-69
2022/10/29 13:00:17;;;;;;;21.40;9.85;;;;;;;;;;4987846;28;20062;-69
2022/10/29 13:02:43;;;;;;;23.63;9.77;;;;;;;;;;4986833;28;20532;-69
2022/10/29 13:05:09;;;;;;;24.00;10.07;;;;;;;;;;4988414;28;20134;-70
2022/10/29 13:07:36;;;;;;;30.55;10.48;;;;;;;;;;4987978;28;20042;-69
2022/10/29 13:10:21;;;;;;;30.67;9.48;;;;;;;;;;4989367;28;20535;-69
2022/10/29 13:13:06;;;;;;;23.42;9.80;;;;;;;;;;4983987;28;20030;-69
2022/10/29 13:15:36;;;;;;;27.50;10.65;;;;;;;;;;4985855;28;20034;-69
2022/10/29 13:18:14;;;;;;;35.00;10.48;;;;;;;;;;4987853;28;20030;-69
2022/10/29 13:20:41;;;;;;;27.65;10.45;;;;;;;;;;4982795;28;20112;-69
2022/10/29 13:23:22;;;;;;;28.08;11.32;;;;;;;;;;4987888;28;20052;-69
2022/10/29 13:25:48;;;;;;;22.05;11.27;;;;;;;;;;4984170;28;20393;-69
2022/10/29 13:28:14;;;;;;;29.67;11.60;;;;;;;;;;4986730;28;20030;-70
2022/10/29 13:30:45;;;;;;;26.13;11.82;;;;;;;;;;4987831;28;20046;-67
2022/10/29 13:33:20;;;;;;;35.83;13.02;;;;;;;;;;4986645;28;20027;-68
2022/10/29 13:35:52;;;;;;;25.92;13.32;;;;;;;;;;4989112;28;20031;-67
2022/10/29 13:38:18;;;;;;;28.83;14.32;;;;;;;;;;4988685;28;20108;-70
2022/10/29 13:40:56;;;;;;;32.38;12.95;;;;;;;;;;4992384;28;20370;-67
2022/10/29 13:43:22;;;;;;;38.25;13.18;;;;;;;;;;4989919;28;20102;-69
2022/10/29 13:45:51;;;;;;;29.42;12.60;;;;;;;;;;4992600;28;20030;-68
2022/10/29 13:48:30;;;;;;;34.53;14.05;;;;;;;;;;4989638;28;20026;-69
2022/10/29 13:50:57;;;;;;;28.45;12.57;;;;;;;;;;4991909;28;20493;-68
2022/10/29 13:53:36;;;;;;;31.02;12.13;;;;;;;;;;4989202;28;20585;-68
2022/10/29 13:56:02;;;;;;;37.70;11.68;;;;;;;;;;4988923;28;20030;-68
2022/10/29 13:58:31;;;;;;;27.23;11.43;;;;;;;;;;4989311;28;20409;-68
2022/10/29 14:00:58;;;;;;;29.35;11.77;;;;;;;;;;4989602;28;20038;-68
2022/10/29 14:03:38;;;;;;;26.67;11.60;;;;;;;;;;4988735;28;20058;-68
2022/10/29 14:06:08;;;;;;;34.78;11.55;;;;;;;;;;4986659;28;20022;-68
2022/10/29 14:08:37;;;;;;;26.60;11.63;;;;;;;;;;4989220;28;20034;-68
2022/10/29 14:11:14;;;;;;;26.50;10.88;;;;;;;;;;4990988;28;20062;-70
2022/10/29 14:13:50;;;;;;;29.80;11.95;;;;;;;;;;4990162;28;20029;-68
2022/10/29 14:16:20;;;;;;;28.33;11.57;;;;;;;;;;4990327;28;20022;-70
2022/10/29 14:18:47;;;;;;;37.13;12.32;;;;;;;;;;4990396;28;20113;-69
2022/10/29 14:21:15;;;;;;;26.60;11.57;;;;;;;;;;4988813;28;20113;-69
2022/10/29 14:23:48;;;;;;;24.25;11.35;;;;;;;;;;4990802;28;20042;-69